createdAt,value
2017-09-25T00:01:52.218Z,107.90
2017-09-25T00:04:19.641Z,122.17
2017-09-25T00:06:47.989Z,116.60
2017-09-25T00:09:15.402Z,115.73
2017-09-25T00:11:42.829Z,113.63
2017-09-25T00:14:10.244Z,118.93
2017-09-25T00:16:37.676Z,119.60
2017-09-25T00:19:05.136Z,115.27
2017-09-25T00:21:32.556Z,114.03
2017-09-25T00:24:00.739Z,123.20
2017-09-25T00:26:28.322Z,104.38
2017-09-25T00:28:55.830Z,108.90
2017-09-25T00:31:23.242Z,111.17
2017-09-25T00:33:50.735Z,106.23
2017-09-25T00:36:18.223Z,105.10
2017-09-25T00:38:46.415Z,108.50
2017-09-25T00:41:14.464Z,108.77
2017-09-25T00:43:42.718Z,109.40
2017-09-25T00:46:10.148Z,130.23
2017-09-25T00:48:37.559Z,109.10
2017-09-25T00:51:05.039Z,106.57
2017-09-25T00:53:44.409Z,111.73
2017-09-25T00:56:11.831Z,103.23
2017-09-25T00:58:39.432Z,104.30
2017-09-25T01:01:15.857Z,101.37
2017-09-25T01:03:53.481Z,106.87
2017-09-25T01:06:29.909Z,106.20
2017-09-25T01:08:57.376Z,121.03
2017-09-25T01:11:24.826Z,104.67
2017-09-25T01:13:53.176Z,103.63
2017-09-25T01:16:21.407Z,108.03
2017-09-25T01:18:48.878Z,111.37
2017-09-25T01:21:16.283Z,104.30
2017-09-25T01:23:43.721Z,109.03
2017-09-25T01:26:11.923Z,99.80
2017-09-25T01:28:39.450Z,98.90
2017-09-25T01:31:07.589Z,103.90
2017-09-25T01:33:35.123Z,103.33
2017-09-25T01:36:03.061Z,116.17
2017-09-25T01:38:30.568Z,117.80
2017-09-25T01:40:57.991Z,115.97
2017-09-25T01:43:25.447Z,121.03
2017-09-25T01:45:54.467Z,122.97
2017-09-25T01:48:22.110Z,116.63
2017-09-25T01:50:49.530Z,130.40
2017-09-25T01:53:17.714Z,112.03
2017-09-25T01:55:45.142Z,120.33
2017-09-25T01:58:12.979Z,122.73
2017-09-25T02:00:40.615Z,125.13
2017-09-25T02:03:08.036Z,127.10
2017-09-25T02:05:36.261Z,129.07
2017-09-25T02:08:03.670Z,129.03
2017-09-25T02:10:31.794Z,132.25
2017-09-25T02:12:59.250Z,132.40
2017-09-25T02:15:26.699Z,124.70
2017-09-25T02:17:54.939Z,129.27
2017-09-25T02:20:22.411Z,118.37
2017-09-25T02:22:49.839Z,121.50
2017-09-25T02:25:18.065Z,123.13
2017-09-25T02:27:45.487Z,105.83
2017-09-25T02:30:12.922Z,109.17
2017-09-25T02:32:41.146Z,109.23
2017-09-25T02:35:08.562Z,101.93
2017-09-25T02:37:36.043Z,121.15
2017-09-25T02:40:03.535Z,124.37
2017-09-25T02:42:30.956Z,105.47
2017-09-25T02:44:58.389Z,92.77
2017-09-25T02:47:26.604Z,109.00
2017-09-25T02:49:54.820Z,104.82
2017-09-25T02:52:22.358Z,96.80
2017-09-25T02:54:49.784Z,102.17
2017-09-25T02:57:17.263Z,100.73
2017-09-25T02:59:44.729Z,89.10
2017-09-25T03:02:12.151Z,93.90
2017-09-25T03:04:39.622Z,91.80
2017-09-25T03:07:07.116Z,100.73
2017-09-25T03:09:34.619Z,95.80
2017-09-25T03:12:02.060Z,96.50
2017-09-25T03:14:29.474Z,89.83
2017-09-25T03:16:56.980Z,102.83
2017-09-25T03:19:25.326Z,100.50
2017-09-25T03:21:53.533Z,101.47
2017-09-25T03:24:20.947Z,98.23
2017-09-25T03:26:49.135Z,99.60
2017-09-25T03:29:17.793Z,97.67
2017-09-25T03:31:45.223Z,101.77
2017-09-25T03:34:12.657Z,94.73
2017-09-25T03:36:40.126Z,96.60
2017-09-25T03:39:07.620Z,92.47
2017-09-25T03:41:35.039Z,92.50
2017-09-25T03:44:02.471Z,99.10
2017-09-25T03:46:29.939Z,101.87
2017-09-25T03:48:57.391Z,96.63
2017-09-25T03:51:25.789Z,105.53
2017-09-25T03:53:53.271Z,102.07
2017-09-25T03:56:21.202Z,109.23
2017-09-25T03:58:48.631Z,112.00
2017-09-25T04:01:17.033Z,120.20
2017-09-25T04:03:44.426Z,123.40
2017-09-25T04:06:11.977Z,124.70
2017-09-25T04:08:39.471Z,124.00
2017-09-25T04:11:07.676Z,128.20
2017-09-25T04:13:35.095Z,119.00
2017-09-25T04:16:03.280Z,138.30
2017-09-25T04:18:31.497Z,132.03
2017-09-25T04:20:58.939Z,129.47
2017-09-25T04:23:26.872Z,132.20
2017-09-25T04:25:54.278Z,119.47
2017-09-25T04:28:21.727Z,128.50
2017-09-25T04:30:49.145Z,128.50
2017-09-25T04:33:16.563Z,120.30
2017-09-25T04:35:44.090Z,133.97
2017-09-25T04:38:11.503Z,133.43
2017-09-25T04:40:40.025Z,128.27
2017-09-25T04:43:07.471Z,128.07
2017-09-25T04:45:34.895Z,127.60
2017-09-25T04:48:03.218Z,123.63
2017-09-25T04:50:30.615Z,121.90
2017-09-25T04:52:58.033Z,125.90
2017-09-25T04:55:25.467Z,131.27
2017-09-25T04:57:52.942Z,118.73
2017-09-25T05:00:20.415Z,110.07
2017-09-25T05:02:48.658Z,113.33
2017-09-25T05:05:16.082Z,124.77
2017-09-25T05:07:43.576Z,107.33
2017-09-25T05:10:10.999Z,104.20
2017-09-25T05:12:39.202Z,118.80
2017-09-25T05:15:06.627Z,122.07
2017-09-25T05:17:34.838Z,120.13
2017-09-25T05:20:02.320Z,110.17
2017-09-25T05:22:30.094Z,122.57
2017-09-25T05:24:58.306Z,106.20
2017-09-25T05:27:25.731Z,123.30
2017-09-25T05:29:53.171Z,112.77
2017-09-25T05:32:20.619Z,106.37
2017-09-25T05:34:48.056Z,106.13
2017-09-25T05:37:15.483Z,101.80
2017-09-25T05:39:43.687Z,109.63
2017-09-25T05:42:11.106Z,100.13
2017-09-25T05:44:39.309Z,116.47
2017-09-25T05:47:06.730Z,101.17
2017-09-25T05:49:34.944Z,106.43
2017-09-25T05:52:02.403Z,104.43
2017-09-25T05:54:29.834Z,101.97
2017-09-25T05:56:59.059Z,103.13
2017-09-25T05:59:26.537Z,114.03
2017-09-25T06:01:53.939Z,110.30
2017-09-25T06:04:22.547Z,98.93
2017-09-25T06:06:50.110Z,100.30
2017-09-25T06:09:18.180Z,103.03
2017-09-25T06:11:45.603Z,105.43
2017-09-25T06:14:13.788Z,105.10
2017-09-25T06:16:41.242Z,99.63
2017-09-25T06:19:08.708Z,110.17
2017-09-25T06:21:36.183Z,107.72
2017-09-25T06:24:03.642Z,103.50
2017-09-25T06:26:31.156Z,111.97
2017-09-25T06:28:59.015Z,111.18
2017-09-25T06:31:27.235Z,109.10
2017-09-25T06:33:54.736Z,108.53
2017-09-25T06:36:22.189Z,113.23
2017-09-25T06:38:49.710Z,112.53
2017-09-25T06:41:17.192Z,104.10
2017-09-25T06:43:44.782Z,112.13
2017-09-25T06:46:12.194Z,105.70
2017-09-25T06:48:39.607Z,107.53
2017-09-25T06:51:07.023Z,105.50
2017-09-25T06:53:34.455Z,100.20
2017-09-25T06:56:01.866Z,106.57
2017-09-25T06:58:30.267Z,100.87
2017-09-25T07:00:57.680Z,100.20
2017-09-25T07:03:25.092Z,98.93
2017-09-25T07:05:52.558Z,109.23
2017-09-25T07:08:20.508Z,91.07
2017-09-25T07:10:48.172Z,95.87
2017-09-25T07:13:15.651Z,93.47
2017-09-25T07:15:43.187Z,97.10
2017-09-25T07:18:10.748Z,98.00
2017-09-25T07:20:38.162Z,89.50
2017-09-25T07:23:05.673Z,88.97
2017-09-25T07:25:33.186Z,90.93
2017-09-25T07:28:01.394Z,89.80
2017-09-25T07:30:28.876Z,89.50
2017-09-25T07:32:56.294Z,102.23
2017-09-25T07:35:23.759Z,98.40
2017-09-25T07:37:51.216Z,87.57
2017-09-25T07:40:18.683Z,78.90
2017-09-25T07:42:46.103Z,90.47
2017-09-25T07:45:14.300Z,88.70
2017-09-25T07:47:41.720Z,87.93
2017-09-25T07:50:10.022Z,79.60
2017-09-25T07:52:38.227Z,80.27
2017-09-25T07:55:06.397Z,75.93
2017-09-25T07:57:33.811Z,76.60
2017-09-25T08:00:01.221Z,74.57
2017-09-25T08:02:28.747Z,74.17
2017-09-25T08:04:56.171Z,71.60
2017-09-25T08:07:24.411Z,73.93
2017-09-25T08:09:51.939Z,64.47
2017-09-25T08:12:19.978Z,64.37
2017-09-25T08:14:48.163Z,63.90
2017-09-25T08:17:15.591Z,59.97
2017-09-25T08:19:43.095Z,57.97
2017-09-25T08:22:10.551Z,62.60
2017-09-25T08:24:37.995Z,63.37
2017-09-25T08:27:05.451Z,61.57
2017-09-25T08:29:32.871Z,64.80
2017-09-25T08:32:01.793Z,64.25
2017-09-25T08:34:29.203Z,63.63
2017-09-25T08:36:56.626Z,64.53
2017-09-25T08:39:24.062Z,66.70
2017-09-25T08:41:52.703Z,65.40
2017-09-25T08:44:20.322Z,62.30
2017-09-25T08:46:47.714Z,73.73
2017-09-25T08:49:15.226Z,63.70
2017-09-25T08:51:42.643Z,64.82
2017-09-25T08:54:10.848Z,57.13
2017-09-25T08:56:38.259Z,56.03
2017-09-25T08:59:05.683Z,59.63
2017-09-25T09:01:33.129Z,62.63
2017-09-25T09:04:01.460Z,61.30
2017-09-25T09:06:29.785Z,64.80
2017-09-25T09:08:57.267Z,66.47
2017-09-25T09:11:24.719Z,64.57
2017-09-25T09:13:52.138Z,71.50
2017-09-25T09:16:19.544Z,72.83
2017-09-25T09:18:46.967Z,71.43
2017-09-25T09:21:14.407Z,72.87
2017-09-25T09:23:41.872Z,72.87
2017-09-25T09:26:09.291Z,77.30
2017-09-25T09:28:37.581Z,78.30
2017-09-25T09:31:05.772Z,75.90
2017-09-25T09:33:33.231Z,80.30
2017-09-25T09:36:00.653Z,77.60
2017-09-25T09:38:28.983Z,74.87
2017-09-25T09:40:56.532Z,75.80
2017-09-25T09:43:24.020Z,71.30
2017-09-25T09:45:52.223Z,79.37
2017-09-25T09:48:20.431Z,75.10
2017-09-25T09:50:47.866Z,65.37
2017-09-25T09:53:16.063Z,68.90
2017-09-25T09:55:43.475Z,75.23
2017-09-25T09:58:11.727Z,74.13
2017-09-25T10:00:39.187Z,81.92
2017-09-25T10:03:06.709Z,72.27
2017-09-25T10:05:34.107Z,76.77
2017-09-25T10:08:01.539Z,79.20
2017-09-25T10:10:29.047Z,74.77
2017-09-25T10:12:57.262Z,73.20
2017-09-25T10:15:24.715Z,79.20
2017-09-25T10:17:52.123Z,86.20
2017-09-25T10:20:20.310Z,81.77
2017-09-25T10:22:47.772Z,83.20
2017-09-25T10:25:15.199Z,75.67
2017-09-25T10:27:42.629Z,78.90
2017-09-25T10:30:10.161Z,84.05
2017-09-25T10:32:37.868Z,77.97
2017-09-25T10:35:05.242Z,75.80
2017-09-25T10:37:34.272Z,74.30
2017-09-25T10:40:01.709Z,75.23
2017-09-25T10:42:29.202Z,77.83
2017-09-25T10:44:56.611Z,74.27
2017-09-25T10:47:24.860Z,74.03
2017-09-25T10:49:52.368Z,87.50
2017-09-25T10:52:20.703Z,78.62
2017-09-25T10:54:48.142Z,80.20
2017-09-25T10:57:15.577Z,82.27
2017-09-25T10:59:42.992Z,73.87
2017-09-25T11:02:11.207Z,73.87
2017-09-25T11:04:38.644Z,71.87
2017-09-25T11:07:06.106Z,80.20
2017-09-25T11:09:34.784Z,67.83
2017-09-25T11:12:02.207Z,72.87
2017-09-25T11:14:29.625Z,71.03
2017-09-25T11:16:57.155Z,76.73
2017-09-25T11:19:24.581Z,71.03
2017-09-25T11:21:52.785Z,63.43
2017-09-25T11:24:20.186Z,67.63
2017-09-25T11:26:48.416Z,59.30
2017-09-25T11:29:15.895Z,56.57
2017-09-25T11:31:43.291Z,74.20
2017-09-25T11:34:11.486Z,68.78
2017-09-25T11:36:38.990Z,61.00
2017-09-25T11:39:06.966Z,64.30
2017-09-25T11:41:34.792Z,54.08
2017-09-25T11:44:02.252Z,51.83
2017-09-25T11:46:29.664Z,49.93
2017-09-25T11:48:57.888Z,56.43
2017-09-25T11:51:25.310Z,47.90
2017-09-25T11:53:53.618Z,71.07
2017-09-25T11:56:21.048Z,53.40
2017-09-25T11:58:48.526Z,55.97
2017-09-25T12:01:16.832Z,57.30
2017-09-25T12:03:44.256Z,59.43
2017-09-25T12:06:11.668Z,56.73
2017-09-25T12:08:39.877Z,54.60
2017-09-25T12:11:07.329Z,51.87
2017-09-25T12:13:35.911Z,48.22
2017-09-25T12:16:03.388Z,56.90
2017-09-25T12:18:30.836Z,47.07
2017-09-25T12:20:58.397Z,54.20
2017-09-25T12:23:25.808Z,56.80
2017-09-25T12:25:53.991Z,60.57
2017-09-25T12:28:22.203Z,52.30
2017-09-25T12:30:49.622Z,63.87
2017-09-25T12:33:17.831Z,60.60
2017-09-25T12:35:45.284Z,61.27
2017-09-25T12:38:12.765Z,60.07
2017-09-25T12:40:40.167Z,53.43
2017-09-25T12:43:08.352Z,54.03
2017-09-25T12:45:35.791Z,50.63
2017-09-25T12:48:04.000Z,50.43
2017-09-25T12:50:32.103Z,49.87
2017-09-25T12:52:59.527Z,52.23
2017-09-25T12:55:26.995Z,61.37
2017-09-25T12:57:54.448Z,59.50
2017-09-25T13:00:21.911Z,60.87
2017-09-25T13:02:49.353Z,60.63
2017-09-25T13:05:16.809Z,63.20
2017-09-25T13:07:44.247Z,53.17
2017-09-25T13:10:11.683Z,71.07
2017-09-25T13:12:39.865Z,71.40
2017-09-25T13:15:08.058Z,65.40
2017-09-25T13:17:36.394Z,64.40
2017-09-25T13:20:03.843Z,56.50
2017-09-25T13:22:31.359Z,66.83
2017-09-25T13:24:58.783Z,64.17
2017-09-25T13:27:27.042Z,60.50
2017-09-25T13:29:54.465Z,54.83
2017-09-25T13:32:21.908Z,62.20
2017-09-25T13:34:49.328Z,55.97
2017-09-25T13:37:17.537Z,60.33
2017-09-25T13:39:44.969Z,57.00
2017-09-25T13:42:12.403Z,63.27
2017-09-25T13:44:40.586Z,48.17
2017-09-25T13:47:08.007Z,50.97
2017-09-25T13:49:35.418Z,50.27
2017-09-25T13:52:02.839Z,41.60
2017-09-25T13:54:31.024Z,44.87
2017-09-25T13:56:59.264Z,49.90
2017-09-25T14:04:32.357Z,46.10
2017-09-25T14:06:59.777Z,53.53
2017-09-25T14:09:27.971Z,48.93
2017-09-25T14:11:55.394Z,51.70
2017-09-25T14:14:23.588Z,49.40
2017-09-25T14:16:51.002Z,43.90
2017-09-25T14:19:18.438Z,47.60
2017-09-25T14:21:45.887Z,48.73
2017-09-25T14:24:13.442Z,48.63
2017-09-25T14:26:40.895Z,52.67
2017-09-25T14:29:08.299Z,50.30
2017-09-25T14:31:36.539Z,48.27
2017-09-25T14:34:03.951Z,50.57
2017-09-25T14:36:31.550Z,48.77
2017-09-25T14:38:58.940Z,50.83
2017-09-25T14:41:26.872Z,45.60
2017-09-25T14:43:54.275Z,54.57
2017-09-25T14:46:22.493Z,52.67
2017-09-25T14:48:49.948Z,53.90
2017-09-25T14:51:17.347Z,57.13
2017-09-25T14:53:45.531Z,56.10
2017-09-25T14:56:13.746Z,51.90
2017-09-25T14:58:41.219Z,47.50
2017-09-25T15:01:08.635Z,51.73
2017-09-25T15:03:36.050Z,51.43
2017-09-25T15:06:03.471Z,44.53
2017-09-25T15:08:31.335Z,57.70
2017-09-25T15:10:58.818Z,47.53
2017-09-25T15:13:26.252Z,47.63
2017-09-25T15:15:53.681Z,52.00
2017-09-25T15:18:21.843Z,54.23
2017-09-25T15:20:50.152Z,48.10
2017-09-25T15:23:17.579Z,46.93
2017-09-25T15:25:45.802Z,47.30
2017-09-25T15:28:13.243Z,44.83
2017-09-25T15:30:41.239Z,40.67
2017-09-25T15:33:08.996Z,30.43
2017-09-25T15:35:36.436Z,44.30
2017-09-25T15:38:03.879Z,25.83
2017-09-25T15:40:32.190Z,27.73
2017-09-25T15:42:59.764Z,29.10
2017-09-25T15:45:27.186Z,24.07
2017-09-25T15:47:54.608Z,28.07
2017-09-25T15:50:22.087Z,22.50
2017-09-25T15:52:49.518Z,32.53
2017-09-25T15:55:17.723Z,24.40
2017-09-25T15:57:45.175Z,28.43
2017-09-25T16:00:12.699Z,33.47
2017-09-25T16:02:40.099Z,34.23
2017-09-25T16:05:07.528Z,30.58
2017-09-25T16:07:35.001Z,32.13
2017-09-25T16:10:02.407Z,31.20
2017-09-25T16:12:30.678Z,33.23
2017-09-25T16:14:58.101Z,29.27
2017-09-25T16:17:25.562Z,33.50
2017-09-25T16:19:52.974Z,30.37
2017-09-25T16:22:20.387Z,40.70
2017-09-25T16:24:48.312Z,40.53
2017-09-25T16:27:15.728Z,36.63
2017-09-25T16:29:43.151Z,38.93
2017-09-25T16:32:10.558Z,44.43
2017-09-25T16:34:38.043Z,32.10
2017-09-25T16:37:05.467Z,41.13
2017-09-25T16:39:33.650Z,31.30
2017-09-25T16:42:01.062Z,41.00
2017-09-25T16:44:29.211Z,37.73
2017-09-25T16:46:56.759Z,36.03
2017-09-25T16:49:24.195Z,38.77
2017-09-25T16:51:51.606Z,37.10
2017-09-25T16:54:19.932Z,37.00
2017-09-25T16:56:47.363Z,36.20
2017-09-25T16:59:15.563Z,35.67
2017-09-25T17:01:42.990Z,37.23
2017-09-25T17:04:11.389Z,43.45
2017-09-25T17:06:38.807Z,32.20
2017-09-25T17:09:06.222Z,42.20
2017-09-25T17:11:33.647Z,43.13
2017-09-25T17:14:01.847Z,38.83
2017-09-25T17:16:29.320Z,42.33
2017-09-25T17:18:56.755Z,39.10
2017-09-25T17:21:24.326Z,49.93
2017-09-25T17:23:51.743Z,43.20
2017-09-25T17:26:19.940Z,45.40
2017-09-25T17:28:47.348Z,42.03
2017-09-25T17:31:15.579Z,49.13
2017-09-25T17:33:43.867Z,45.80
2017-09-25T17:36:11.315Z,42.43
2017-09-25T17:38:38.766Z,58.70
2017-09-25T17:41:06.240Z,45.53
2017-09-25T17:43:33.686Z,49.13
2017-09-25T17:46:01.132Z,54.70
2017-09-25T17:48:28.759Z,51.37
2017-09-25T17:50:56.983Z,58.90
2017-09-25T17:53:24.406Z,54.50
2017-09-25T17:55:52.605Z,52.50
2017-09-25T17:58:20.255Z,54.10
2017-09-25T18:00:47.668Z,53.63
2017-09-25T18:03:15.105Z,50.23
2017-09-25T18:05:42.631Z,55.90
2017-09-25T18:08:10.073Z,49.27
2017-09-25T18:10:37.483Z,42.90
2017-09-25T18:13:04.913Z,50.80
2017-09-25T18:15:32.342Z,57.77
2017-09-25T18:17:59.854Z,49.72
2017-09-25T18:20:27.740Z,42.47
2017-09-25T18:22:55.713Z,54.27
2017-09-25T18:25:23.908Z,51.93
2017-09-25T18:27:51.381Z,51.50
2017-09-25T18:30:20.290Z,52.77
2017-09-25T18:32:47.753Z,49.97
2017-09-25T18:35:15.147Z,52.03
2017-09-25T18:37:43.360Z,49.50
2017-09-25T18:40:10.827Z,56.10
2017-09-25T18:42:38.301Z,57.20
2017-09-25T18:45:06.035Z,56.37
2017-09-25T18:47:33.496Z,57.87
2017-09-25T18:50:00.957Z,62.47
2017-09-25T18:52:28.378Z,59.70
2017-09-25T18:54:56.239Z,62.97
2017-09-25T18:57:24.540Z,62.53
2017-09-25T18:59:52.027Z,69.97
2017-09-25T19:02:20.181Z,63.60
2017-09-25T19:04:47.606Z,63.63
2017-09-25T19:07:15.089Z,57.90
2017-09-25T19:09:43.782Z,63.87
2017-09-25T19:12:11.224Z,68.67
2017-09-25T19:14:38.712Z,65.00
2017-09-25T19:17:06.199Z,61.70
2017-09-25T19:19:34.542Z,60.60
2017-09-25T19:22:02.080Z,63.20
2017-09-25T19:24:29.517Z,62.70
2017-09-25T19:26:56.977Z,63.47
2017-09-25T19:29:24.415Z,67.60
2017-09-25T19:31:52.587Z,60.90
2017-09-25T19:34:21.005Z,69.37
2017-09-25T19:36:48.396Z,62.37
2017-09-25T19:39:15.815Z,65.70
2017-09-25T19:41:43.360Z,67.47
2017-09-25T19:44:10.893Z,64.73
2017-09-25T19:46:39.800Z,72.63
2017-09-25T19:49:12.632Z,70.37
2017-09-25T19:51:40.052Z,69.27
2017-09-25T19:54:08.966Z,70.20
2017-09-25T19:56:46.272Z,65.37
2017-09-25T19:59:13.811Z,72.10
2017-09-25T20:01:41.241Z,67.78
2017-09-25T20:04:08.676Z,75.30
2017-09-25T20:06:36.890Z,69.18
2017-09-25T20:09:05.225Z,67.00
2017-09-25T20:11:32.783Z,71.70
2017-09-25T20:14:00.199Z,67.00
2017-09-25T20:16:33.381Z,66.00
2017-09-25T20:19:01.000Z,72.73
2017-09-25T20:21:28.505Z,69.53
2017-09-25T20:23:55.934Z,68.40
2017-09-25T20:26:23.466Z,68.00
2017-09-25T20:28:51.718Z,65.03
2017-09-25T20:31:19.186Z,64.32
2017-09-25T20:33:46.637Z,70.47
2017-09-25T20:36:14.050Z,73.40
2017-09-25T20:38:41.528Z,76.13
2017-09-25T20:41:10.799Z,72.57
2017-09-25T20:43:50.050Z,64.33
2017-09-25T20:46:17.472Z,69.23
2017-09-25T20:48:45.673Z,71.80
2017-09-25T20:51:14.663Z,74.50
2017-09-25T20:53:42.133Z,72.55
2017-09-25T20:56:10.811Z,75.17
2017-09-25T20:58:38.636Z,77.40
2017-09-25T21:01:06.991Z,69.77
2017-09-25T21:03:34.467Z,77.83
2017-09-25T21:06:02.696Z,71.40
2017-09-25T21:08:30.931Z,68.97
2017-09-25T21:10:58.621Z,70.93
2017-09-25T21:13:26.626Z,65.40
2017-09-25T21:15:55.300Z,68.73
2017-09-25T21:18:24.672Z,62.62
2017-09-25T21:20:54.275Z,66.50
2017-09-25T21:23:22.771Z,71.07
2017-09-25T21:26:10.060Z,71.13
2017-09-25T21:28:37.617Z,65.60
2017-09-25T21:31:05.193Z,65.93
2017-09-25T21:33:32.693Z,65.83
2017-09-25T21:36:00.120Z,60.77
2017-09-25T21:38:27.739Z,56.67
2017-09-25T21:40:55.421Z,62.53
2017-09-25T21:43:22.859Z,61.03
2017-09-25T21:45:50.357Z,56.20
2017-09-25T21:48:17.921Z,58.03
2017-09-25T21:50:45.386Z,61.63
2017-09-25T21:53:13.201Z,57.20
2017-09-25T21:55:40.699Z,54.65
2017-09-25T21:58:09.082Z,51.13
2017-09-25T22:00:36.523Z,54.77
2017-09-25T22:03:03.966Z,57.43
2017-09-25T22:05:31.400Z,55.33
2017-09-25T22:07:58.830Z,60.38
2017-09-25T22:10:26.437Z,51.67
2017-09-25T22:12:53.892Z,55.77
2017-09-25T22:15:21.455Z,57.15
2017-09-25T22:17:49.135Z,57.73
2017-09-25T22:20:16.553Z,57.83
2017-09-25T22:22:45.667Z,61.43
2017-09-25T22:25:13.100Z,64.40
2017-09-25T22:27:40.575Z,54.23
2017-09-25T22:30:07.999Z,57.37
2017-09-25T22:32:36.221Z,59.33
2017-09-25T22:35:03.690Z,52.40
2017-09-25T22:37:31.126Z,54.97
2017-09-25T22:39:58.554Z,52.73
2017-09-25T22:42:26.404Z,52.23
2017-09-25T22:44:54.587Z,57.97
2017-09-25T22:47:22.787Z,58.17
2017-09-25T22:49:50.212Z,53.27
2017-09-25T22:52:18.393Z,51.13
2017-09-25T22:54:45.856Z,48.63
2017-09-25T22:57:14.104Z,48.00
2017-09-25T22:59:42.782Z,46.90
2017-09-25T23:02:10.958Z,46.63
2017-09-25T23:07:42.464Z,44.80
2017-09-25T23:10:09.936Z,45.83
2017-09-25T23:12:37.403Z,44.50
2017-09-25T23:15:04.819Z,46.07
2017-09-25T23:17:33.036Z,41.77
2017-09-25T23:20:00.513Z,51.77
2017-09-25T23:22:27.925Z,43.80
2017-09-25T23:24:55.342Z,47.27
2017-09-25T23:27:22.759Z,41.47
2017-09-25T23:29:52.611Z,56.43
2017-09-25T23:32:20.072Z,45.78
2017-09-25T23:34:47.558Z,46.30
2017-09-25T23:37:16.499Z,42.85
2017-09-25T23:39:43.923Z,42.00
2017-09-25T23:42:11.391Z,44.57
2017-09-25T23:44:38.879Z,45.43
2017-09-25T23:47:06.561Z,45.47
2017-09-25T23:49:34.751Z,52.10
2017-09-25T23:52:02.166Z,48.73
2017-09-25T23:54:29.590Z,45.75
2017-09-25T23:56:57.039Z,50.10
2017-09-25T23:59:24.497Z,54.05
